Time;durP1;ratioP1;P1;durP2;ratioP2;P2;SDS_P1;SDS_P2;PMS_P1;PMS_P2;Temp;Humidity;BMP_temperature;BMP_pressure;BME280_temperature;BME280_humidity;BME280_pressure;Samples;Min_cycle;Max_cycle;Signal;HPM_P1;HPM_P2
2021/12/11 00:00:36;;;;;;;45.00;19.47;;;;;;;0.00;100.00;99703.94;4881231;29;20653;-85
2021/12/11 00:03:19;;;;;;;40.33;18.57;;;;;;;-0.04;100.00;99699.56;4900041;29;20044;-85
2021/12/11 00:05:50;;;;;;;43.17;18.63;;;;;;;-0.02;100.00;99701.28;4890102;29;20059;-85
2021/12/11 00:08:21;;;;;;;43.53;19.80;;;;;;;0.00;100.00;99711.72;4887752;29;20414;-85
2021/12/11 00:10:53;;;;;;;42.37;18.40;;;;;;;-0.02;100.00;99713.41;4885647;29;20171;-84
2021/12/11 00:13:24;;;;;;;47.13;19.90;;;;;;;-0.02;100.00;99718.59;4900562;29;20059;-86
2021/12/11 00:15:51;;;;;;;40.97;18.40;;;;;;;-0.03;100.00;99722.94;4917061;29;20044;-85
2021/12/11 00:18:22;;;;;;;39.53;18.90;;;;;;;-0.03;100.00;99725.53;4916390;29;20040;-85
2021/12/11 00:21:00;;;;;;;39.67;16.90;;;;;;;-0.03;100.00;99727.25;4890576;29;20115;-85
2021/12/11 00:23:40;;;;;;;45.57;18.03;;;;;;;0.09;100.00;99734.28;4884676;29;20500;-85
2021/12/11 00:26:09;;;;;;;36.53;16.63;;;;;;;0.10;100.00;99739.47;4886014;29;20056;-85
2021/12/11 00:28:45;;;;;;;42.83;18.13;;;;;;;0.13;100.00;99746.41;4887579;29;20892;-86
2021/12/11 00:31:16;;;;;;;33.80;15.97;;;;;;;0.09;100.00;99749.88;4904603;29;20048;-86
2021/12/11 00:33:45;;;;;;;34.67;15.87;;;;;;;0.02;100.00;99761.94;4897063;29;20192;-86
2021/12/11 00:36:16;;;;;;;43.43;17.67;;;;;;;0.02;100.00;99767.13;4882684;29;20048;-85
2021/12/11 00:38:47;;;;;;;40.57;16.90;;;;;;;0.03;100.00;99771.44;4881061;29;20100;-86
2021/12/11 00:41:17;;;;;;;36.43;16.37;;;;;;;-0.01;100.00;99773.13;4885773;29;20048;-84
2021/12/11 00:43:45;;;;;;;39.57;17.50;;;;;;;-0.08;100.00;99786.94;4869662;29;20048;-85
2021/12/11 00:46:16;;;;;;;36.57;16.90;;;;;;;-0.05;100.00;99786.09;4902037;29;20048;-86
2021/12/11 00:48:43;;;;;;;44.33;18.13;;;;;;;-0.03;100.00;99790.44;4869812;29;20067;-86
2021/12/11 00:51:14;;;;;;;44.57;18.87;;;;;;;-0.03;100.00;99786.97;4901867;29;20051;-87
2021/12/11 00:53:45;;;;;;;38.27;17.37;;;;;;;-0.07;100.00;99799.06;4916532;29;20088;-86
2021/12/11 00:56:16;;;;;;;34.50;17.33;;;;;;;-0.05;100.00;99799.94;4901205;29;20048;-85
2021/12/11 00:58:44;;;;;;;40.70;18.07;;;;;;;-0.06;100.00;99800.81;4908386;29;20059;-85
2021/12/11 01:01:15;;;;;;;38.87;18.50;;;;;;;-0.06;100.00;99799.94;4894059;29;20058;-86
2021/12/11 01:03:57;;;;;;;35.80;16.77;;;;;;;-0.07;100.00;99814.66;4903571;29;20052;-85
2021/12/11 01:06:34;;;;;;;37.80;15.87;;;;;;;-0.09;100.00;99805.94;4911992;29;20074;-86
2021/12/11 01:09:06;;;;;;;34.73;17.07;;;;;;;-0.07;100.00;99806.00;4896346;29;20056;-85
2021/12/11 01:11:41;;;;;;;44.10;19.30;;;;;;;-0.06;100.00;99816.38;4886720;29;20383;-85
2021/12/11 01:14:21;;;;;;;35.63;16.33;;;;;;;0.04;100.00;99819.06;4916400;29;20103;-85
2021/12/11 01:16:58;;;;;;;41.03;16.90;;;;;;;0.03;100.00;99828.56;4889511;29;20047;-87
2021/12/11 01:19:28;;;;;;;37.67;17.13;;;;;;;-0.08;100.00;99827.63;4884477;29;20049;-85
2021/12/11 01:21:58;;;;;;;38.47;17.53;;;;;;;-0.15;100.00;99829.28;4901762;29;20509;-85
2021/12/11 01:24:44;;;;;;;40.37;18.97;;;;;;;-0.09;100.00;99837.09;4884324;29;20045;-87
2021/12/11 01:27:13;;;;;;;37.50;15.37;;;;;;;-0.08;100.00;99841.47;4887937;29;20055;-86
2021/12/11 01:29:41;;;;;;;35.20;15.40;;;;;;;-0.15;100.00;99836.22;4916455;29;20506;-86
2021/12/11 01:32:08;;;;;;;37.50;15.37;;;;;;;-0.18;100.00;99841.34;4899465;29;20442;-85
2021/12/11 01:34:35;;;;;;;34.10;15.60;;;;;;;-0.16;100.00;99852.63;4866800;29;20055;-84
2021/12/11 01:37:03;;;;;;;35.37;16.40;;;;;;;-0.09;100.00;99850.09;4855761;29;20059;-87
2021/12/11 01:39:35;;;;;;;34.40;14.87;;;;;;;-0.14;100.00;99856.13;4885903;29;20451;-86
2021/12/11 01:42:08;;;;;;;38.63;16.53;;;;;;;-0.13;100.00;99860.44;4886301;29;20048;-87
2021/12/11 01:44:38;;;;;;;38.23;16.17;;;;;;;-0.16;100.00;99866.50;4901149;29;20036;-87
2021/12/11 01:47:18;;;;;;;37.77;16.40;;;;;;;-0.16;100.00;99865.63;4903937;29;20068;-86
2021/12/11 01:50:03;;;;;;;38.90;17.23;;;;;;;-0.16;100.00;99869.09;4871511;29;20074;-85
2021/12/11 01:52:37;;;;;;;;;;;;;;;-0.10;100.00;99865.66;4886244;29;20080;-84
2021/12/11 01:55:09;;;;;;;36.88;15.38;;;;;;;-0.10;100.00;99876.03;4899588;29;19927;-87
2021/12/11 01:57:36;;;;;;;35.87;17.37;;;;;;;-0.16;100.00;99884.66;4887553;29;20060;-86
2021/12/11 02:00:12;;;;;;;36.17;15.57;;;;;;;-0.17;100.00;99890.72;4890235;29;20047;-86
2021/12/11 02:02:45;;;;;;;31.97;15.27;;;;;;;-0.22;100.00;99892.38;4906598;29;20075;-86
2021/12/11 02:05:14;;;;;;;38.55;16.70;;;;;;;-0.20;100.00;99902.78;4921751;29;20074;-86
2021/12/11 02:07:45;;;;;;;35.63;18.07;;;;;;;-0.20;100.00;99905.38;4887765;29;20513;-86
2021/12/11 02:10:55;;;;;;;40.40;16.43;;;;;;;-0.23;100.00;99906.22;4869207;29;20044;-86
2021/12/11 02:13:37;;;;;;;38.17;17.33;;;;;;;-0.21;100.00;99911.41;4868663;29;20056;-87
2021/12/11 02:16:05;;;;;;;37.47;16.60;;;;;;;-0.21;100.00;99911.41;4898212;29;20068;-86
2021/12/11 02:18:35;;;;;;;33.03;15.23;;;;;;;-0.23;100.00;99913.13;4902931;29;20107;-86
2021/12/11 02:21:14;;;;;;;39.07;16.73;;;;;;;-0.22;100.00;99918.34;4919077;29;20215;-86
2021/12/11 02:23:41;;;;;;;38.53;19.50;;;;;;;-0.21;100.00;99916.59;4901132;29;21030;-86
2021/12/11 02:26:14;;;;;;;47.97;18.33;;;;;;;-0.20;100.00;99919.22;4884494;29;20529;-86
2021/12/11 02:29:03;;;;;;;36.77;17.47;;;;;;;-0.21;100.00;99919.19;4867982;29;20066;-85
2021/12/11 02:31:42;;;;;;;33.47;16.30;;;;;;;-0.21;100.00;99932.19;4900525;29;20100;-85
2021/12/11 02:34:17;;;;;;;51.93;18.33;;;;;;;-0.19;100.00;99928.75;4898738;29;20048;-85
2021/12/11 02:36:48;;;;;;;36.10;15.77;;;;;;;-0.20;100.00;99927.00;4900569;29;20052;-85
2021/12/11 02:39:24;;;;;;;33.40;16.07;;;;;;;-0.17;100.00;99927.06;4884632;29;20463;-85
2021/12/11 02:42:00;;;;;;;39.10;16.23;;;;;;;-0.09;100.00;99927.97;4900274;29;20052;-86
2021/12/11 02:44:29;;;;;;;41.87;18.60;;;;;;;-0.12;100.00;99929.69;4882912;29;20399;-86
2021/12/11 02:47:10;;;;;;;40.90;18.63;;;;;;;-0.17;100.00;99937.44;4899574;29;20044;-87
2021/12/11 02:49:59;;;;;;;40.53;17.33;;;;;;;-0.20;100.00;99929.59;4882990;29;20045;-87
2021/12/11 02:52:47;;;;;;;38.13;17.10;;;;;;;-0.17;100.00;99939.13;4869000;29;20490;-86
2021/12/11 02:55:19;;;;;;;41.10;17.07;;;;;;;-0.15;100.00;99937.44;4867762;29;20072;-85
2021/12/11 02:57:50;;;;;;;43.87;17.10;;;;;;;-0.18;100.00;99942.59;4869010;29;20040;-86
2021/12/11 03:00:30;;;;;;;37.17;17.90;;;;;;;-0.20;100.00;99944.31;4899209;29;20089;-86
2021/12/11 03:03:03;;;;;;;41.73;17.30;;;;;;;-0.21;100.00;99940.84;4869563;29;20051;-85
2021/12/11 03:05:40;;;;;;;37.47;15.63;;;;;;;-0.24;100.00;99943.41;4883416;29;20053;-84
2021/12/11 03:08:11;;;;;;;31.77;14.93;;;;;;;-0.24;100.00;99939.94;4868538;29;20048;-84
2021/12/11 03:10:40;;;;;;;44.60;19.00;;;;;;;-0.23;100.00;99950.34;4868730;29;20045;-86
2021/12/11 03:13:07;;;;;;;40.63;17.40;;;;;;;-0.23;100.00;99952.94;4900554;29;20064;-86
2021/12/11 03:15:34;;;;;;;44.33;17.47;;;;;;;-0.23;100.00;99954.66;4853033;29;20057;-86
2021/12/11 03:18:02;;;;;;;43.30;18.30;;;;;;;-0.23;100.00;99950.34;4869515;29;20899;-85
2021/12/11 03:20:29;;;;;;;42.17;19.60;;;;;;;-0.19;100.00;99957.28;4868227;29;20041;-86
2021/12/11 03:22:56;;;;;;;43.93;18.57;;;;;;;-0.21;100.00;99961.59;4884778;29;20055;-85
2021/12/11 03:25:26;;;;;;;44.57;19.57;;;;;;;-0.18;100.00;99960.75;4868803;29;20040;-86
2021/12/11 03:27:53;;;;;;;39.50;17.23;;;;;;;-0.08;100.00;99967.81;4869518;29;20518;-86
2021/12/11 03:30:25;;;;;;;42.93;19.27;;;;;;;-0.15;100.00;99969.47;4898862;23;20051;-81
2021/12/11 03:32:55;;;;;;;43.60;17.67;;;;;;;-0.15;100.00;99966.88;4892701;29;20056;-81
2021/12/11 03:35:22;;;;;;;38.50;17.50;;;;;;;-0.14;100.00;99981.59;4896389;29;20064;-82
2021/12/11 03:37:49;;;;;;;35.67;16.77;;;;;;;-0.17;100.00;99975.47;4886466;29;20045;-82
2021/12/11 03:40:17;;;;;;;34.93;15.93;;;;;;;-0.16;100.00;99974.66;4882695;29;20524;-82
2021/12/11 03:42:45;;;;;;;37.30;17.07;;;;;;;-0.16;100.00;99985.03;4869617;29;20100;-81
2021/12/11 03:45:15;;;;;;;42.63;18.37;;;;;;;-0.08;100.00;99984.28;4881170;29;20047;-82
2021/12/11 03:47:52;;;;;;;42.73;18.03;;;;;;;-0.11;100.00;99980.75;4873586;29;20096;-82
2021/12/11 03:50:22;;;;;;;35.17;16.03;;;;;;;-0.13;100.00;99998.03;4878618;29;20041;-83
2021/12/11 03:52:52;;;;;;;46.80;18.00;;;;;;;-0.10;100.00;99996.34;4879123;29;20516;-82
2021/12/11 03:55:23;;;;;;;41.30;18.13;;;;;;;-0.06;100.00;99995.53;4881503;29;20409;-81
2021/12/11 03:57:57;;;;;;;36.50;16.07;;;;;;;-0.14;100.00;100001.50;4899031;29;20048;-82
2021/12/11 04:00:31;;;;;;;33.55;17.52;;;;;;;-0.18;100.00;99999.69;4886795;29;20043;-82
2021/12/11 04:03:03;;;;;;;36.25;15.13;;;;;;;-0.20;100.00;100006.59;4873776;29;20056;-83
2021/12/11 04:05:35;;;;;;;38.00;16.27;;;;;;;-0.10;100.00;100009.31;4863168;29;20044;-82
2021/12/11 04:08:03;;;;;;;38.37;16.07;;;;;;;-0.07;100.00;100016.31;4896689;29;20417;-82
2021/12/11 04:10:30;;;;;;;41.83;19.03;;;;;;;-0.12;100.00;100013.63;4892569;29;20120;-83
2021/12/11 04:12:59;;;;;;;38.47;16.90;;;;;;;-0.17;100.00;100022.22;4872964;29;20067;-82
2021/12/11 04:15:26;;;;;;;37.27;15.73;;;;;;;-0.18;100.00;100013.56;4889135;29;20048;-82
2021/12/11 04:17:54;;;;;;;34.60;16.87;;;;;;;-0.14;100.00;100025.72;4889216;29;20043;-82
2021/12/11 04:20:24;;;;;;;33.63;14.43;;;;;;;-0.18;100.00;100042.09;4896978;29;20063;-81
2021/12/11 04:22:51;;;;;;;36.60;16.23;;;;;;;-0.21;100.00;100036.00;4889614;29;20080;-81
2021/12/11 04:25:20;;;;;;;31.53;15.87;;;;;;;-0.21;100.00;100043.81;4889194;29;20075;-82
2021/12/11 04:27:51;;;;;;;32.83;14.23;;;;;;;-0.24;100.00;100048.97;4897521;29;20052;-81
2021/12/11 04:30:20;;;;;;;31.97;13.90;;;;;;;-0.20;100.00;100049.00;4898182;29;20044;-81
2021/12/11 04:32:48;;;;;;;30.90;12.93;;;;;;;-0.35;100.00;100059.19;4878155;29;20109;-81
2021/12/11 04:35:16;;;;;;;27.40;12.27;;;;;;;-0.39;100.00;100057.41;4875308;29;20202;-81
2021/12/11 04:37:44;;;;;;;28.20;12.60;;;;;;;-0.37;100.00;100061.75;4871989;29;20044;-82
2021/12/11 04:40:18;;;;;;;26.47;11.57;;;;;;;-0.42;100.00;100062.53;4898536;29;20037;-82
2021/12/11 04:42:57;;;;;;;29.27;13.05;;;;;;;-0.46;100.00;100065.97;4881093;29;20044;-81
2021/12/11 04:45:33;;;;;;;54.70;21.77;;;;;;;-0.39;100.00;100080.78;4892265;29;20048;-80
2021/12/11 04:48:20;;;;;;;34.80;19.40;;;;;;;-0.41;100.00;100079.88;4888910;29;20502;-81
2021/12/11 04:50:56;;;;;;;30.57;14.80;;;;;;;-0.42;100.00;100093.69;4881251;29;20641;-81
2021/12/11 04:56:21;;;;;;;26.67;13.67;;;;;;;-0.41;100.00;100098.03;4895828;29;20048;-81
2021/12/11 04:58:57;;;;;;;27.30;12.57;;;;;;;-0.44;100.00;100103.16;4888078;29;20545;-80
2021/12/11 05:12:06;;;;;;;23.90;11.93;;;;;;;-0.42;100.00;100125.72;4892966;29;20041;-81
2021/12/11 05:14:33;;;;;;;32.97;14.20;;;;;;;-0.42;100.00;100123.13;4881495;29;20032;-80
2021/12/11 05:17:00;;;;;;;29.87;12.20;;;;;;;-0.48;100.00;100130.81;4852204;29;20451;-80
2021/12/11 05:19:27;;;;;;;26.00;11.70;;;;;;;-0.47;100.00;100134.28;4867838;29;20055;-81
2021/12/11 05:21:54;;;;;;;28.47;12.20;;;;;;;-0.49;100.00;100138.56;4886344;29;20076;-81
2021/12/11 05:24:21;;;;;;;25.10;12.17;;;;;;;-0.52;100.00;100148.88;4882384;29;20056;-78
2021/12/11 05:26:49;;;;;;;29.07;14.00;;;;;;;-0.50;100.00;100147.22;4865178;29;20061;-78
2021/12/11 05:29:16;;;;;;;28.43;13.50;;;;;;;-0.48;100.00;100146.38;4875199;29;20044;-79
2021/12/11 05:31:45;;;;;;;30.30;12.33;;;;;;;-0.44;100.00;100149.88;4892538;29;20116;-79
2021/12/11 05:34:12;;;;;;;28.33;13.67;;;;;;;-0.40;100.00;100154.28;4876124;29;20486;-79
2021/12/11 05:36:39;;;;;;;26.07;11.17;;;;;;;-0.43;100.00;100151.63;4864167;29;20529;-78
2021/12/11 05:39:14;;;;;;;28.63;13.87;;;;;;;-0.44;100.00;100152.47;4880133;29;20497;-79
2021/12/11 05:41:42;;;;;;;23.90;12.37;;;;;;;-0.44;100.00;100160.25;4873153;29;20485;-79
2021/12/11 05:44:11;;;;;;;22.17;13.37;;;;;;;-0.40;100.00;100156.88;4888490;29;20073;-79
2021/12/11 05:46:39;;;;;;;20.53;10.97;;;;;;;-0.44;100.00;100168.91;4882079;29;20046;-79
2021/12/11 05:49:08;;;;;;;24.43;11.43;;;;;;;-0.45;100.00;100161.97;4879071;29;20052;-79
2021/12/11 05:51:39;;;;;;;29.73;12.57;;;;;;;-0.45;100.00;100169.78;4870495;29;20056;-81
2021/12/11 05:54:11;;;;;;;23.43;11.47;;;;;;;-0.46;100.00;100167.16;4864085;29;20060;-79
2021/12/11 05:56:39;;;;;;;23.17;10.87;;;;;;;-0.51;100.00;100174.84;4873462;29;20041;-80
2021/12/11 05:59:13;;;;;;;22.17;10.87;;;;;;;-0.49;100.00;100182.69;4882842;29;20056;-80
2021/12/11 06:01:45;;;;;;;31.60;13.20;;;;;;;-0.45;100.00;100187.94;4895877;29;20051;-79
2021/12/11 06:04:20;;;;;;;24.37;11.43;;;;;;;-0.45;100.00;100198.31;4863420;29;20494;-79
2021/12/11 06:06:48;;;;;;;27.50;13.70;;;;;;;-0.46;100.00;100198.28;4860934;29;20479;-79
2021/12/11 06:09:17;;;;;;;23.57;12.40;;;;;;;-0.48;100.00;100207.78;4866337;29;20049;-79
2021/12/11 06:11:46;;;;;;;24.03;11.53;;;;;;;-0.47;100.00;100204.34;4868004;29;20080;-79
2021/12/11 06:14:16;;;;;;;24.63;12.53;;;;;;;-0.54;100.00;100210.25;4855633;29;20044;-80
2021/12/11 06:16:44;;;;;;;34.03;15.93;;;;;;;-0.59;100.00;100212.75;4861952;29;20135;-78
2021/12/11 06:19:11;;;;;;;33.70;17.27;;;;;;;-0.57;100.00;100219.75;4883770;29;20083;-79
2021/12/11 06:21:38;;;;;;;27.70;12.63;;;;;;;-0.55;100.00;100226.69;4878102;29;20053;-78
2021/12/11 06:24:06;;;;;;;26.43;12.47;;;;;;;-0.55;100.00;100230.16;4893442;29;20064;-78
2021/12/11 06:26:33;;;;;;;27.37;12.67;;;;;;;-0.34;100.00;100227.03;4853253;29;20521;-78
2021/12/11 06:28:59;;;;;;;25.87;12.03;;;;;;;-0.48;100.00;100231.13;4871496;29;20047;-78
2021/12/11 06:31:26;;;;;;;26.50;12.90;;;;;;;-0.47;100.00;100235.47;4866774;29;20880;-78
2021/12/11 06:33:54;;;;;;;28.97;14.17;;;;;;;-0.47;100.00;100248.44;4867158;29;20111;-78
2021/12/11 06:36:26;;;;;;;28.93;14.13;;;;;;;-0.47;100.00;100245.84;4897067;29;20044;-78
2021/12/11 06:38:58;;;;;;;25.27;12.23;;;;;;;-0.53;100.00;100251.78;4883618;29;20033;-78
2021/12/11 06:41:31;;;;;;;23.27;12.83;;;;;;;-0.50;100.00;100256.19;4869914;29;20045;-78
2021/12/11 06:43:58;;;;;;;26.30;11.30;;;;;;;-0.49;100.00;100253.63;4899154;29;20044;-79
2021/12/11 06:46:25;;;;;;;21.77;10.83;;;;;;;-0.44;100.00;100253.69;4872243;29;20053;-79
2021/12/11 06:48:53;;;;;;;20.03;10.63;;;;;;;-0.45;100.00;100258.00;4880917;29;20041;-79
2021/12/11 06:51:21;;;;;;;22.07;10.80;;;;;;;-0.45;100.00;100259.72;4892513;29;20044;-78
2021/12/11 06:53:54;;;;;;;20.50;11.57;;;;;;;-0.47;100.00;100264.03;4881294;29;20043;-78
2021/12/11 06:56:23;;;;;;;24.37;10.97;;;;;;;-0.44;100.00;100264.06;4879917;29;20112;-79
2021/12/11 06:58:51;;;;;;;22.87;11.07;;;;;;;-0.47;100.00;100275.28;4894170;29;20103;-79
2021/12/11 07:01:20;;;;;;;24.13;12.23;;;;;;;-0.49;100.00;100276.09;4897252;29;20052;-78
2021/12/11 07:03:47;;;;;;;28.47;12.40;;;;;;;-0.37;100.00;100287.56;4879102;29;20053;-78
2021/12/11 07:06:15;;;;;;;22.90;11.17;;;;;;;-0.40;100.00;100287.50;4879145;29;20443;-78
2021/12/11 07:08:42;;;;;;;25.13;11.27;;;;;;;-0.44;100.00;100303.00;4879796;29;20063;-79
2021/12/11 07:11:11;;;;;;;24.27;12.17;;;;;;;-0.36;100.00;100304.00;4883211;29;20044;-79
2021/12/11 07:13:40;;;;;;;28.30;12.17;;;;;;;-0.44;100.00;100305.59;4879079;29;21025;-78
2021/12/11 07:16:08;;;;;;;24.07;12.10;;;;;;;-0.43;100.00;100312.50;4879792;29;20049;-78
2021/12/11 07:18:36;;;;;;;25.53;11.87;;;;;;;-0.42;100.00;100324.63;4862514;29;20441;-79
2021/12/11 07:21:04;;;;;;;23.53;10.93;;;;;;;-0.44;100.00;100323.75;4891240;29;20045;-78
2021/12/11 07:23:33;;;;;;;23.23;11.40;;;;;;;-0.40;100.00;100318.66;4862744;29;20063;-79
2021/12/11 07:26:02;;;;;;;25.40;11.80;;;;;;;-0.41;100.00;100331.59;4871489;29;20140;-79
2021/12/11 07:28:29;;;;;;;21.83;10.63;;;;;;;-0.41;100.00;100334.22;4877311;29;20052;-79
2021/12/11 07:30:58;;;;;;;23.57;10.97;;;;;;;-0.43;100.00;100341.06;4878952;29;20936;-79
2021/12/11 07:33:25;;;;;;;22.27;11.33;;;;;;;-0.41;100.00;100349.78;4889612;29;20040;-79
2021/12/11 07:35:52;;;;;;;21.27;11.17;;;;;;;-0.42;100.00;100359.28;4891508;29;20762;-80
2021/12/11 07:38:19;;;;;;;20.83;10.43;;;;;;;-0.41;100.00;100362.75;4876601;29;20056;-80
2021/12/11 07:40:52;;;;;;;34.00;20.40;;;;;;;-0.42;100.00;100368.75;4878036;29;20068;-79
2021/12/11 07:43:21;;;;;;;24.80;13.90;;;;;;;-0.43;100.00;100370.47;4861606;29;20041;-79
2021/12/11 07:45:48;;;;;;;25.30;11.67;;;;;;;-0.36;100.00;100374.06;4874228;29;20074;-79
2021/12/11 07:48:15;;;;;;;22.27;10.83;;;;;;;-0.39;100.00;100377.50;4889559;29;20052;-79
2021/12/11 07:50:42;;;;;;;27.23;12.43;;;;;;;-0.39;100.00;100371.44;4886331;29;20437;-80
2021/12/11 07:53:09;;;;;;;25.50;11.60;;;;;;;-0.39;100.00;100381.81;4902482;29;20048;-79
2021/12/11 07:55:36;;;;;;;27.67;11.20;;;;;;;-0.38;100.00;100386.16;4902204;29;20103;-80
2021/12/11 07:58:04;;;;;;;27.57;12.80;;;;;;;-0.39;100.00;100394.78;4887114;29;20083;-80
2021/12/11 08:00:32;;;;;;;25.03;12.43;;;;;;;-0.36;100.00;100389.66;4877143;29;20067;-80
2021/12/11 08:03:00;;;;;;;23.57;11.97;;;;;;;-0.33;100.00;100397.50;4884469;29;20104;-80
2021/12/11 08:05:27;;;;;;;23.80;10.53;;;;;;;-0.32;100.00;100410.50;4889198;29;20047;-79
2021/12/11 08:07:58;;;;;;;24.93;12.13;;;;;;;-0.25;100.00;100415.81;4887147;29;20104;-79
2021/12/11 08:10:25;;;;;;;29.57;14.13;;;;;;;-0.30;100.00;100416.59;4902409;29;20055;-80
2021/12/11 08:12:53;;;;;;;24.57;12.37;;;;;;;-0.28;100.00;100414.03;4894534;29;20526;-79
2021/12/11 08:15:20;;;;;;;24.50;13.17;;;;;;;-0.24;100.00;100421.06;4890771;29;20073;-80
2021/12/11 08:17:54;;;;;;;26.97;12.33;;;;;;;-0.26;100.00;100420.13;4883642;29;20101;-82
2021/12/11 08:20:24;;;;;;;25.77;12.07;;;;;;;-0.24;100.00;100423.66;4857180;29;20040;-80
2021/12/11 08:22:52;;;;;;;28.23;10.97;;;;;;;-0.19;100.00;100437.56;4868318;29;20049;-79
2021/12/11 08:25:20;;;;;;;29.23;13.03;;;;;;;-0.16;100.00;100436.78;4867961;29;20056;-81
2021/12/11 08:27:47;;;;;;;27.50;12.07;;;;;;;-0.16;100.00;100437.66;4868330;29;20044;-81
2021/12/11 08:30:15;;;;;;;24.90;12.33;;;;;;;-0.17;100.00;100443.69;4882199;29;20068;-80
2021/12/11 08:32:42;;;;;;;31.27;13.23;;;;;;;-0.10;100.00;100444.66;4866482;29;20495;-80
2021/12/11 08:35:11;;;;;;;26.57;13.67;;;;;;;-0.09;100.00;100460.25;4880045;29;20049;-81
2021/12/11 08:37:40;;;;;;;26.73;13.10;;;;;;;-0.07;100.00;100456.00;4884007;29;20052;-79
2021/12/11 08:40:11;;;;;;;29.63;13.90;;;;;;;-0.12;100.00;100460.22;4871649;29;20037;-80
2021/12/11 08:42:38;;;;;;;29.07;13.97;;;;;;;-0.07;100.00;100457.72;4914376;29;20044;-80
2021/12/11 08:45:10;;;;;;;35.33;15.23;;;;;;;-0.06;100.00;100467.25;4882854;29;20052;-79
2021/12/11 08:47:40;;;;;;;30.27;13.33;;;;;;;0.04;100.00;100457.91;4882005;29;20044;-80
2021/12/11 08:50:11;;;;;;;25.87;13.53;;;;;;;0.05;100.00;100463.13;4864629;29;20044;-80
2021/12/11 08:52:41;;;;;;;27.80;14.60;;;;;;;0.03;100.00;100463.97;4884409;29;20040;-79
2021/12/11 08:55:17;;;;;;;27.87;12.30;;;;;;;0.06;100.00;100469.19;4890771;29;20574;-81
2021/12/11 08:57:44;;;;;;;30.43;13.40;;;;;;;0.13;100.00;100478.88;4884381;29;20040;-80
2021/12/11 09:00:46;;;;;;;29.83;15.87;;;;;;;0.19;100.00;100484.19;4880027;29;20060;-81
2021/12/11 09:03:33;;;;;;;30.63;14.97;;;;;;;0.18;100.00;100483.31;4904220;29;20127;-82
2021/12/11 09:06:23;;;;;;;30.20;13.50;;;;;;;0.24;100.00;100490.31;4892617;29;20080;-80
2021/12/11 09:08:57;;;;;;;30.23;13.17;;;;;;;0.27;100.00;100485.19;4890134;29;20052;-82
2021/12/11 09:11:31;;;;;;;;;;;;;;;0.25;100.00;100492.06;4894497;29;20060;-82
2021/12/11 09:14:15;;;;;;;31.27;14.25;;;;;;;0.24;100.00;100487.72;4893945;29;19934;-81
2021/12/11 09:16:52;;;;;;;31.90;13.90;;;;;;;0.29;100.00;100491.28;4875639;29;20434;-82
2021/12/11 09:19:27;;;;;;;26.60;12.97;;;;;;;0.32;100.00;100483.53;4888874;29;20052;-81
2021/12/11 09:22:12;;;;;;;25.90;12.90;;;;;;;0.39;100.00;100495.81;4888949;29;20060;-82
2021/12/11 09:24:54;;;;;;;28.93;12.93;;;;;;;0.41;100.00;100501.03;4872587;29;20044;-81
2021/12/11 09:27:33;;;;;;;26.67;12.73;;;;;;;0.43;100.00;100502.81;4884027;29;20048;-81
2021/12/11 09:30:10;;;;;;;32.57;14.30;;;;;;;0.61;100.00;100502.25;4902641;29;20122;-81
2021/12/11 09:32:40;;;;;;;27.80;13.37;;;;;;;0.55;100.00;100512.56;4895050;29;20044;-82
2021/12/11 09:35:09;;;;;;;24.37;12.67;;;;;;;0.53;100.00;100509.06;4892712;29;20406;-83
2021/12/11 09:37:36;;;;;;;28.37;15.13;;;;;;;0.66;100.00;100515.31;4895730;29;20049;-83
2021/12/11 09:40:11;;;;;;;28.63;13.00;;;;;;;0.49;100.00;100502.91;4880945;29;20053;-81
2021/12/11 09:42:37;;;;;;;31.93;14.33;;;;;;;0.51;100.00;100515.97;4884448;29;20044;-81
2021/12/11 09:45:11;;;;;;;31.77;14.87;;;;;;;0.54;100.00;100511.69;4881963;29;20059;-82
2021/12/11 09:47:41;;;;;;;26.50;11.88;;;;;;;0.62;100.00;100517.00;4884550;29;20056;-82
2021/12/11 09:50:12;;;;;;;28.10;11.67;;;;;;;0.61;100.00;100530.00;4866412;29;20060;-82
2021/12/11 09:52:41;;;;;;;28.63;11.60;;;;;;;0.51;100.00;100532.44;4866877;29;20041;-82
2021/12/11 09:55:12;;;;;;;21.30;11.30;;;;;;;0.42;100.00;100545.25;4881041;29;20733;-80
2021/12/11 10:29:42;;;;;;;18.23;8.23;;;;;;;0.43;100.00;100582.50;4835525;29;20064;-80
2021/12/11 10:33:13;;;;;;;16.87;8.80;;;;;;;0.32;100.00;100584.88;4825244;29;20091;-79
2021/12/11 10:36:39;;;;;;;18.50;8.90;;;;;;;0.36;100.00;100594.50;4844526;29;20083;-79
2021/12/11 10:40:31;;;;;;;22.80;12.73;;;;;;;0.37;100.00;100593.66;4857663;29;20060;-79
2021/12/11 10:47:39;;;;;;;19.40;10.60;;;;;;;0.37;100.00;100595.38;4882085;29;20227;-83
2021/12/11 10:50:20;;;;;;;20.53;11.00;;;;;;;0.34;100.00;100606.59;4866346;29;20056;-83
2021/12/11 10:52:50;;;;;;;20.40;10.53;;;;;;;0.39;100.00;100612.75;4872520;29;20033;-84
2021/12/11 10:55:21;;;;;;;19.57;9.83;;;;;;;0.37;100.00;100613.56;4894819;29;20523;-82
2021/12/11 10:57:51;;;;;;;20.33;9.57;;;;;;;0.44;100.00;100615.44;4902988;29;20123;-81
2021/12/11 11:00:29;;;;;;;19.30;9.90;;;;;;;0.46;100.00;100622.41;4892298;29;20052;-82
2021/12/11 11:02:56;;;;;;;21.63;11.00;;;;;;;0.47;100.00;100616.38;4929506;29;20047;-82
2021/12/11 11:05:24;;;;;;;19.70;9.87;;;;;;;0.49;100.00;100632.88;4931350;29;20060;-84
2021/12/11 11:07:51;;;;;;;17.13;9.37;;;;;;;0.52;100.00;100638.16;4929574;29;20044;-82
2021/12/11 11:10:22;;;;;;;17.73;9.23;;;;;;;0.48;100.00;100638.03;4929631;28;20579;-83
2021/12/11 11:12:50;;;;;;;19.53;9.87;;;;;;;0.40;100.00;100647.41;4934593;29;20066;-84
2021/12/11 11:15:20;;;;;;;19.93;10.00;;;;;;;0.49;100.00;100640.66;4948267;29;20052;-82
2021/12/11 11:17:49;;;;;;;19.63;9.63;;;;;;;0.45;100.00;100651.00;4916846;29;20049;-84
2021/12/11 11:20:24;;;;;;;25.93;14.33;;;;;;;0.48;100.00;100657.09;4933169;29;20039;-84
2021/12/11 11:22:51;;;;;;;20.30;12.38;;;;;;;0.61;100.00;100650.44;4936643;29;20044;-84
2021/12/11 11:25:32;;;;;;;22.83;11.93;;;;;;;0.48;100.00;100654.50;4908283;29;20059;-81
2021/12/11 11:28:05;;;;;;;24.00;10.50;;;;;;;0.45;100.00;100651.88;4938984;29;20051;-81
2021/12/11 11:30:39;;;;;;;22.87;10.97;;;;;;;0.42;100.00;100656.09;4900527;29;20051;-83
2021/12/11 11:33:17;;;;;;;25.23;11.77;;;;;;;0.50;100.00;100654.53;4915664;29;20054;-81
2021/12/11 11:35:47;;;;;;;31.17;15.47;;;;;;;0.49;100.00;100656.25;4944068;23;20043;-81
2021/12/11 11:38:30;;;;;;;28.97;16.00;;;;;;;0.55;100.00;100650.31;4909635;29;20112;-81
2021/12/11 11:41:02;;;;;;;24.40;11.43;;;;;;;0.53;100.00;100665.88;4895960;29;20048;-81
2021/12/11 11:43:29;;;;;;;27.63;14.57;;;;;;;0.57;100.00;100669.41;4900692;29;21034;-82
2021/12/11 11:45:56;;;;;;;26.10;13.13;;;;;;;0.57;100.00;100674.63;4912613;29;20048;-81
2021/12/11 11:48:26;;;;;;;24.77;12.63;;;;;;;0.54;100.00;100684.97;4885902;29;20048;-81
2021/12/11 11:51:20;;;;;;;19.45;10.45;;;;;;;0.45;100.00;100685.66;4880882;29;20059;-81
2021/12/11 11:53:48;;;;;;;27.33;12.40;;;;;;;0.51;100.00;100682.31;4908752;29;20055;-81
2021/12/11 11:56:18;;;;;;;25.53;12.37;;;;;;;0.50;100.00;100691.81;4894468;29;20055;-82
2021/12/11 11:58:45;;;;;;;40.20;21.13;;;;;;;0.59;100.00;100695.44;4899322;29;20043;-82
2021/12/11 12:01:21;;;;;;;54.63;23.20;;;;;;;0.57;100.00;100708.41;4896112;29;20067;-81
2021/12/11 12:03:49;;;;;;;34.80;16.53;;;;;;;0.53;100.00;100714.41;4903803;29;20062;-82
2021/12/11 12:06:24;;;;;;;24.13;11.63;;;;;;;0.52;100.00;100725.66;4894034;29;20448;-80
2021/12/11 12:08:56;;;;;;;30.73;15.30;;;;;;;0.48;100.00;100713.41;4899391;29;20048;-80
2021/12/11 12:11:26;;;;;;;27.23;13.53;;;;;;;0.59;100.00;100718.84;4904290;29;20055;-81
2021/12/11 12:13:53;;;;;;;25.80;12.53;;;;;;;0.49;100.00;100717.75;4908212;29;20572;-82
2021/12/11 12:16:31;;;;;;;28.07;11.90;;;;;;;0.49;100.00;100726.44;4913473;29;20044;-82
2021/12/11 12:18:58;;;;;;;24.53;11.77;;;;;;;0.45;100.00;100734.16;4890793;29;20044;-81